createdAt,value
2019-03-17T00:11:04.489Z,2.50
2019-03-17T00:13:33.396Z,2.50
2019-03-17T00:16:02.304Z,2.60
2019-03-17T00:18:31.215Z,2.50
2019-03-17T00:21:00.100Z,2.50
2019-03-17T00:23:29.028Z,2.50
2019-03-17T00:25:57.934Z,2.50
2019-03-17T00:28:26.821Z,2.50
2019-03-17T00:30:57.460Z,2.50
2019-03-17T00:33:26.398Z,2.50
2019-03-17T00:35:55.308Z,2.50
2019-03-17T00:38:24.198Z,2.50
2019-03-17T00:40:53.123Z,2.50
2019-03-17T00:43:22.029Z,2.50
2019-03-17T00:45:51.041Z,2.50
2019-03-17T00:48:19.948Z,2.50
2019-03-17T00:50:49.860Z,2.50
2019-03-17T00:53:18.890Z,2.50
2019-03-17T00:55:47.796Z,2.50
2019-03-17T00:58:16.703Z,2.50
2019-03-17T01:00:45.615Z,2.50
2019-03-17T01:03:14.730Z,2.50
2019-03-17T01:05:43.633Z,2.50
2019-03-17T01:08:12.541Z,2.50
2019-03-17T01:10:41.438Z,2.40
2019-03-17T01:13:10.355Z,2.50
2019-03-17T01:15:39.264Z,2.40
2019-03-17T01:18:10.052Z,2.40
2019-03-17T01:20:38.715Z,2.40
2019-03-17T01:23:07.625Z,2.30
2019-03-17T01:25:39.250Z,2.30
2019-03-17T01:28:08.206Z,2.30
2019-03-17T01:30:37.112Z,2.30
2019-03-17T01:33:06.020Z,2.20
2019-03-17T01:38:07.109Z,2.20
2019-03-17T01:40:36.017Z,2.30
2019-03-17T01:43:04.923Z,2.30
2019-03-17T01:45:33.830Z,2.30
2019-03-17T01:48:02.849Z,2.30
2019-03-17T01:50:31.766Z,2.30
2019-03-17T01:53:00.656Z,2.30
2019-03-17T01:55:29.564Z,2.20
2019-03-17T01:57:58.475Z,2.30
2019-03-17T02:00:27.381Z,2.20
2019-03-17T02:02:57.334Z,2.20
2019-03-17T02:05:26.219Z,2.20
2019-03-17T02:07:55.228Z,2.20
2019-03-17T02:10:24.136Z,2.20
2019-03-17T02:12:53.046Z,2.20
2019-03-17T02:15:21.965Z,2.20
2019-03-17T02:17:50.782Z,2.20
2019-03-17T02:20:19.665Z,2.30
2019-03-17T02:22:48.576Z,2.30
2019-03-17T02:25:17.481Z,2.30
2019-03-17T02:27:46.387Z,2.30
2019-03-17T02:30:15.300Z,2.30
2019-03-17T02:32:44.210Z,2.30
2019-03-17T02:35:13.111Z,2.30
2019-03-17T02:37:42.033Z,2.30
2019-03-17T02:40:11.336Z,2.30
2019-03-17T02:42:40.250Z,2.30
2019-03-17T02:45:10.591Z,2.30
2019-03-17T02:47:39.492Z,2.20
2019-03-17T02:50:09.716Z,2.20
2019-03-17T02:52:38.647Z,2.20
2019-03-17T02:55:08.898Z,2.20
2019-03-17T02:57:37.996Z,2.20
2019-03-17T03:00:09.568Z,2.20
2019-03-17T03:02:38.469Z,2.20
2019-03-17T03:05:08.592Z,2.20
2019-03-17T03:07:37.519Z,2.20
2019-03-17T03:10:07.251Z,2.20
2019-03-17T03:12:36.357Z,2.20
2019-03-17T03:15:07.574Z,2.20
2019-03-17T03:17:36.520Z,2.20
2019-03-17T03:20:08.148Z,2.20
2019-03-17T03:22:37.076Z,2.10
2019-03-17T03:25:08.028Z,2.10
2019-03-17T03:27:36.963Z,2.10
2019-03-17T03:30:11.603Z,2.10
2019-03-17T03:32:40.609Z,2.10
2019-03-17T03:35:10.060Z,2.10
2019-03-17T03:37:39.038Z,2.10
2019-03-17T03:40:12.214Z,2.10
2019-03-17T03:42:41.156Z,2.10
2019-03-17T03:45:11.583Z,2.10
2019-03-17T03:47:40.534Z,2.10
2019-03-17T03:50:10.654Z,2.10
2019-03-17T03:52:39.551Z,2.10
2019-03-17T03:55:09.312Z,2.10
2019-03-17T03:57:38.292Z,2.10
2019-03-17T04:00:12.472Z,2.10
2019-03-17T04:02:41.419Z,2.10
2019-03-17T04:05:10.328Z,2.10
2019-03-17T04:07:39.235Z,2.10
2019-03-17T04:10:10.283Z,2.10
2019-03-17T04:12:38.424Z,2.10
2019-03-17T04:15:09.423Z,2.10
2019-03-17T04:17:38.333Z,2.10
2019-03-17T04:20:09.385Z,2.10
2019-03-17T04:22:38.313Z,2.10
2019-03-17T04:25:08.016Z,2.10
2019-03-17T04:27:38.848Z,2.10
2019-03-17T04:30:12.153Z,2.10
2019-03-17T04:32:41.106Z,2.10
2019-03-17T04:35:10.218Z,2.10
2019-03-17T04:37:39.112Z,2.10
2019-03-17T04:40:09.164Z,2.10
2019-03-17T04:42:38.170Z,2.10
2019-03-17T04:45:08.008Z,2.10
2019-03-17T04:47:36.904Z,2.10
2019-03-17T04:50:07.245Z,2.10
2019-03-17T04:52:36.153Z,2.10
2019-03-17T04:55:06.392Z,2.10
2019-03-17T04:57:35.302Z,2.10
2019-03-17T05:00:13.930Z,2.10
2019-03-17T05:02:42.843Z,2.10
2019-03-17T05:05:12.053Z,2.10
2019-03-17T05:07:41.068Z,2.10
2019-03-17T05:10:10.600Z,2.10
2019-03-17T05:12:39.497Z,2.20
2019-03-17T05:15:11.264Z,2.20
2019-03-17T05:17:40.172Z,2.20
2019-03-17T05:20:10.663Z,2.20
2019-03-17T05:22:39.627Z,2.20
2019-03-17T05:25:08.738Z,2.20
2019-03-17T05:27:37.646Z,2.30
2019-03-17T05:30:09.214Z,2.20
2019-03-17T05:32:38.121Z,2.30
2019-03-17T05:35:07.520Z,2.30
2019-03-17T05:37:36.428Z,2.30
2019-03-17T05:40:08.168Z,2.30
2019-03-17T05:42:37.129Z,2.30
2019-03-17T05:45:07.468Z,2.40
2019-03-17T05:47:36.379Z,2.40
2019-03-17T05:50:07.410Z,2.40
2019-03-17T05:52:36.346Z,2.40
2019-03-17T05:55:09.773Z,2.40
2019-03-17T05:57:38.665Z,2.40
2019-03-17T06:00:10.846Z,2.50
2019-03-17T06:02:39.751Z,2.50
2019-03-17T06:05:09.188Z,2.50
2019-03-17T06:07:38.180Z,2.50
2019-03-17T06:10:07.907Z,2.50
2019-03-17T06:12:36.926Z,2.60
2019-03-17T06:15:09.026Z,2.60
2019-03-17T06:17:37.906Z,2.60
2019-03-17T06:20:10.422Z,2.70
2019-03-17T06:22:39.406Z,2.70
2019-03-17T06:25:09.646Z,2.70
2019-03-17T06:27:38.533Z,2.70
2019-03-17T06:30:10.449Z,2.70
2019-03-17T06:32:39.279Z,2.70
2019-03-17T06:35:08.246Z,2.80
2019-03-17T06:37:37.152Z,2.80
2019-03-17T06:40:09.031Z,2.80
2019-03-17T06:42:37.934Z,2.80
2019-03-17T06:45:08.800Z,2.80
2019-03-17T06:47:37.843Z,2.80
2019-03-17T06:50:10.081Z,2.90
2019-03-17T06:52:38.992Z,2.90
2019-03-17T06:55:11.074Z,2.90
2019-03-17T06:57:40.079Z,3.00
2019-03-17T07:00:15.434Z,3.00
2019-03-17T07:02:44.446Z,3.00
2019-03-17T07:05:13.447Z,3.00
2019-03-17T07:07:44.305Z,3.00
2019-03-17T07:10:13.013Z,3.10
2019-03-17T07:12:42.024Z,3.10
2019-03-17T07:15:13.694Z,3.10
2019-03-17T07:17:43.115Z,3.20
2019-03-17T07:20:13.966Z,3.20
2019-03-17T07:22:43.100Z,3.10
2019-03-17T07:25:12.187Z,3.20
2019-03-17T07:27:41.719Z,3.20
2019-03-17T07:30:13.158Z,3.20
2019-03-17T07:32:42.299Z,3.20
2019-03-17T07:35:11.407Z,3.20
2019-03-17T07:37:40.313Z,3.20
2019-03-17T07:40:11.467Z,3.30
2019-03-17T07:42:39.457Z,3.40
2019-03-17T07:45:09.937Z,3.40
2019-03-17T07:47:38.907Z,3.50
2019-03-17T07:50:14.266Z,3.50
2019-03-17T07:52:43.378Z,3.60
2019-03-17T07:55:12.399Z,3.60
2019-03-17T07:57:41.294Z,3.50
2019-03-17T08:00:12.253Z,3.60
2019-03-17T08:02:41.260Z,3.60
2019-03-17T08:05:10.995Z,3.70
2019-03-17T08:07:39.892Z,3.70
2019-03-17T08:10:14.144Z,3.70
2019-03-17T08:12:43.247Z,3.70
2019-03-17T08:15:13.557Z,3.60
2019-03-17T08:17:42.473Z,3.70
2019-03-17T08:20:12.124Z,3.80
2019-03-17T08:22:41.118Z,3.80
2019-03-17T08:25:11.337Z,3.90
2019-03-17T08:27:40.293Z,3.80
2019-03-17T08:30:13.789Z,3.90
2019-03-17T08:32:42.683Z,4.00
2019-03-17T08:35:12.002Z,4.00
2019-03-17T08:37:40.914Z,4.00
2019-03-17T08:40:17.269Z,4.00
2019-03-17T08:42:46.277Z,4.00
2019-03-17T08:45:15.395Z,4.10
2019-03-17T08:47:56.718Z,4.20
2019-03-17T08:50:15.460Z,4.20
2019-03-17T08:52:44.387Z,4.30
2019-03-17T08:55:13.395Z,4.50
2019-03-17T08:57:42.306Z,4.60
2019-03-17T09:00:18.435Z,4.80
2019-03-17T09:02:47.366Z,4.80
2019-03-17T09:05:16.598Z,4.90
2019-03-17T09:07:45.612Z,4.90
2019-03-17T09:10:15.749Z,4.80
2019-03-17T09:12:44.636Z,4.70
2019-03-17T09:15:13.562Z,4.70
2019-03-17T09:17:43.723Z,4.80
2019-03-17T09:20:14.960Z,4.80
2019-03-17T09:22:43.867Z,4.80
2019-03-17T09:25:12.782Z,4.80
2019-03-17T09:27:41.681Z,4.70
2019-03-17T09:30:18.265Z,4.70
2019-03-17T09:32:47.178Z,4.80
2019-03-17T09:35:16.086Z,4.80
2019-03-17T09:37:44.994Z,4.90
2019-03-17T09:40:14.926Z,5.00
2019-03-17T09:42:44.750Z,5.10
2019-03-17T09:45:14.556Z,5.30
2019-03-17T09:47:43.487Z,5.30
2019-03-17T09:50:19.799Z,5.40
2019-03-17T09:52:48.773Z,5.50
2019-03-17T09:55:17.684Z,5.40
2019-03-17T09:57:46.589Z,5.40
2019-03-17T10:00:16.527Z,5.40
2019-03-17T10:02:47.152Z,5.30
2019-03-17T10:05:16.175Z,5.40
2019-03-17T10:07:45.084Z,5.30
2019-03-17T10:10:24.008Z,5.30
2019-03-17T10:12:52.939Z,5.20
2019-03-17T10:15:22.161Z,5.30
2019-03-17T10:17:51.053Z,5.40
2019-03-17T10:20:20.675Z,5.50
2019-03-17T10:22:49.583Z,5.60
2019-03-17T10:25:18.492Z,5.60
2019-03-17T10:27:47.405Z,5.60
2019-03-17T10:30:21.227Z,5.50
2019-03-17T10:32:50.139Z,5.50
2019-03-17T10:35:19.044Z,5.60
2019-03-17T10:37:47.943Z,5.60
2019-03-17T10:40:21.664Z,5.50
2019-03-17T10:42:51.614Z,5.50
2019-03-17T10:45:20.585Z,5.50
2019-03-17T10:47:49.515Z,5.50
2019-03-17T10:50:20.466Z,5.40
2019-03-17T10:52:53.711Z,5.40
2019-03-17T10:55:28.309Z,5.40
2019-03-17T10:58:04.123Z,5.30
2019-03-17T11:00:34.682Z,5.30
2019-03-17T11:03:08.393Z,5.30
2019-03-17T11:05:40.521Z,5.30
2019-03-17T11:08:16.673Z,5.30
2019-03-17T11:10:50.804Z,5.30
2019-03-17T11:13:19.730Z,5.30
2019-03-17T11:15:48.641Z,5.30
2019-03-17T11:18:17.656Z,5.30
2019-03-17T11:20:46.553Z,5.30
2019-03-17T11:23:15.462Z,5.30
2019-03-17T11:25:45.655Z,5.20
2019-03-17T11:28:14.610Z,5.20
2019-03-17T11:30:48.327Z,5.20
2019-03-17T11:33:17.234Z,5.30
2019-03-17T11:35:46.142Z,5.30
2019-03-17T11:38:15.152Z,5.20
2019-03-17T11:40:44.040Z,5.20
2019-03-17T11:43:14.205Z,5.30
2019-03-17T11:45:44.228Z,5.30
2019-03-17T11:48:14.166Z,5.30
2019-03-17T11:50:43.068Z,5.30
2019-03-17T11:53:12.382Z,5.30
2019-03-17T11:55:41.548Z,5.30
2019-03-17T11:58:11.224Z,5.30
2019-03-17T12:00:42.158Z,5.30
2019-03-17T12:03:11.189Z,5.30
2019-03-17T12:05:40.098Z,5.30
2019-03-17T12:08:10.647Z,5.30
2019-03-17T12:10:39.546Z,5.30
2019-03-17T12:13:08.559Z,5.30
2019-03-17T12:15:37.468Z,5.30
2019-03-17T12:18:06.295Z,5.30
2019-03-17T12:20:35.181Z,5.40
2019-03-17T12:23:04.090Z,5.30
2019-03-17T12:25:33.105Z,5.30
2019-03-17T12:28:01.970Z,5.40
2019-03-17T12:30:33.884Z,5.30
2019-03-17T12:33:02.897Z,5.30
2019-03-17T12:35:31.801Z,5.30
2019-03-17T12:38:01.119Z,5.30
2019-03-17T12:40:29.953Z,5.30
2019-03-17T12:42:59.037Z,5.30
2019-03-17T12:45:29.218Z,5.30
2019-03-17T12:47:59.924Z,5.30
2019-03-17T12:50:29.545Z,5.30
2019-03-17T12:52:59.479Z,5.30
2019-03-17T12:55:28.369Z,5.30
2019-03-17T12:57:57.701Z,5.30
2019-03-17T13:00:28.750Z,5.30
2019-03-17T13:02:58.656Z,5.30
2019-03-17T13:05:28.730Z,5.30
2019-03-17T13:07:58.245Z,5.30
2019-03-17T13:10:27.154Z,5.30
2019-03-17T13:12:56.176Z,5.30
2019-03-17T13:15:25.667Z,5.30
2019-03-17T13:17:54.595Z,5.30
2019-03-17T13:20:23.912Z,5.30
2019-03-17T13:22:55.581Z,5.40
2019-03-17T13:25:27.322Z,5.40
2019-03-17T13:27:57.388Z,5.40
2019-03-17T13:30:26.297Z,5.40
2019-03-17T13:32:55.203Z,5.50
2019-03-17T13:35:24.111Z,5.50
2019-03-17T13:37:53.026Z,5.50
2019-03-17T13:40:29.423Z,5.50
2019-03-17T13:42:55.440Z,5.50
2019-03-17T13:45:25.086Z,5.60
2019-03-17T13:47:54.176Z,5.60
2019-03-17T13:50:25.233Z,5.60
2019-03-17T13:52:54.755Z,5.60
2019-03-17T13:55:25.103Z,5.60
2019-03-17T13:58:12.526Z,5.60
2019-03-17T14:00:41.847Z,5.60
2019-03-17T14:03:34.191Z,5.60
2019-03-17T14:06:03.303Z,5.70
2019-03-17T14:08:32.208Z,5.70
2019-03-17T14:11:01.116Z,5.70
2019-03-17T14:13:30.026Z,5.70
2019-03-17T14:15:58.937Z,5.70
2019-03-17T14:18:27.839Z,5.70
2019-03-17T14:20:56.680Z,5.60
2019-03-17T14:23:25.655Z,5.60
2019-03-17T14:25:54.565Z,5.60
2019-03-17T14:28:23.473Z,5.60
2019-03-17T14:30:52.483Z,5.60
2019-03-17T14:33:21.407Z,5.60
2019-03-17T14:35:50.415Z,5.60
2019-03-17T14:38:19.306Z,5.60
2019-03-17T14:40:53.341Z,5.60
2019-03-17T14:43:18.748Z,5.60
2019-03-17T14:45:47.624Z,5.60
2019-03-17T14:48:16.575Z,5.60
2019-03-17T14:50:45.489Z,5.60
2019-03-17T14:53:14.494Z,5.60
2019-03-17T14:55:43.380Z,5.60
2019-03-17T14:58:12.311Z,5.60
2019-03-17T15:00:41.218Z,5.60
2019-03-17T15:03:10.125Z,5.70
2019-03-17T15:05:39.139Z,5.70
2019-03-17T15:08:08.044Z,5.80
2019-03-17T15:10:36.949Z,5.80
2019-03-17T15:13:05.792Z,5.80
2019-03-17T15:15:34.869Z,5.90
2019-03-17T15:18:03.829Z,5.90
2019-03-17T15:20:32.772Z,6.00
2019-03-17T15:23:01.798Z,6.00
2019-03-17T15:25:30.704Z,6.00
2019-03-17T15:27:59.612Z,6.00
2019-03-17T15:30:29.850Z,6.00
2019-03-17T15:32:58.860Z,6.00
2019-03-17T15:35:27.769Z,6.00
2019-03-17T15:37:56.609Z,6.00
2019-03-17T15:40:25.582Z,6.10
2019-03-17T15:42:54.594Z,6.10
2019-03-17T15:45:24.566Z,6.10
2019-03-17T15:47:53.561Z,6.10
2019-03-17T15:50:23.869Z,6.10
2019-03-17T15:52:53.806Z,6.10
2019-03-17T15:55:22.642Z,6.10
2019-03-17T15:57:51.725Z,6.10
2019-03-17T16:00:26.851Z,6.20
2019-03-17T16:02:56.090Z,6.20
2019-03-17T16:05:24.928Z,6.20
2019-03-17T16:07:53.908Z,6.20
2019-03-17T16:10:26.804Z,6.20
2019-03-17T16:12:55.922Z,6.20
2019-03-17T16:15:24.826Z,6.20
2019-03-17T16:17:53.835Z,6.20
2019-03-17T16:20:23.868Z,6.20
2019-03-17T16:22:53.275Z,6.20
2019-03-17T16:25:27.521Z,6.20
2019-03-17T16:27:56.633Z,6.20
2019-03-17T16:30:27.584Z,6.10
2019-03-17T16:32:56.598Z,6.20
2019-03-17T16:35:25.494Z,6.10
2019-03-17T16:37:54.416Z,6.10
2019-03-17T16:40:36.045Z,6.10
2019-03-17T16:43:05.923Z,6.10
2019-03-17T16:45:35.140Z,6.10
2019-03-17T16:48:04.063Z,6.10
2019-03-17T16:50:32.971Z,6.10
2019-03-17T16:53:01.879Z,6.10
2019-03-17T16:55:31.794Z,6.10
2019-03-17T16:58:00.717Z,6.10
2019-03-17T17:00:29.627Z,6.10
2019-03-17T17:02:58.517Z,6.20
2019-03-17T17:05:28.481Z,6.20
2019-03-17T17:07:57.473Z,6.20
2019-03-17T17:10:31.089Z,6.20
2019-03-17T17:13:00.085Z,6.20
2019-03-17T17:15:33.203Z,6.30
2019-03-17T17:18:02.112Z,6.30
2019-03-17T17:20:32.246Z,6.30
2019-03-17T17:23:01.157Z,6.40
2019-03-17T17:25:30.062Z,6.30
2019-03-17T17:27:58.956Z,6.40
2019-03-17T17:30:27.977Z,6.40
2019-03-17T17:32:57.106Z,6.40
2019-03-17T17:35:26.056Z,6.50
2019-03-17T17:37:55.115Z,6.50
2019-03-17T17:40:25.060Z,6.40
2019-03-17T17:42:53.924Z,6.50
2019-03-17T17:45:23.780Z,6.50
2019-03-17T17:47:52.613Z,6.50
2019-03-17T17:50:34.164Z,6.50
2019-03-17T17:53:03.016Z,6.50
2019-03-17T17:55:31.999Z,6.50
2019-03-17T17:58:00.907Z,6.50
2019-03-17T18:00:40.561Z,6.60
2019-03-17T18:03:09.571Z,6.60
2019-03-17T18:05:38.478Z,6.60
2019-03-17T18:08:07.615Z,6.60
2019-03-17T18:10:36.603Z,6.60
2019-03-17T18:13:05.820Z,6.60
2019-03-17T18:15:35.080Z,6.60
2019-03-17T18:18:04.132Z,6.60
2019-03-17T18:20:33.051Z,6.60
2019-03-17T18:23:01.959Z,6.70
2019-03-17T18:25:30.848Z,6.70
2019-03-17T18:27:59.876Z,6.70
2019-03-17T18:30:28.887Z,6.70
2019-03-17T18:32:57.898Z,6.70
2019-03-17T18:35:26.829Z,6.70
2019-03-17T18:37:55.723Z,6.80
2019-03-17T18:40:24.641Z,6.70
2019-03-17T18:42:53.529Z,6.80
2019-03-17T18:45:24.761Z,6.80
2019-03-17T18:47:52.878Z,6.80
2019-03-17T18:50:21.786Z,6.80
2019-03-17T18:52:50.695Z,6.80
2019-03-17T18:55:19.703Z,6.80
2019-03-17T18:57:49.639Z,6.70
2019-03-17T19:00:22.335Z,6.70
2019-03-17T19:02:51.650Z,6.80
2019-03-17T19:05:20.945Z,6.70
2019-03-17T19:07:49.873Z,6.70
2019-03-17T19:10:19.803Z,6.70
2019-03-17T19:12:50.101Z,6.70
2019-03-17T19:15:22.943Z,6.70
2019-03-17T19:17:51.953Z,6.60
2019-03-17T19:20:21.680Z,6.70
2019-03-17T19:22:50.688Z,6.70
2019-03-17T19:25:26.148Z,6.70
2019-03-17T19:27:55.259Z,6.70
2019-03-17T19:30:25.498Z,6.70
2019-03-17T19:32:54.401Z,6.60
2019-03-17T19:35:23.320Z,6.70
2019-03-17T19:37:52.423Z,6.70
2019-03-17T19:40:23.379Z,6.70
2019-03-17T19:42:59.331Z,6.70
2019-03-17T19:45:25.498Z,6.70
2019-03-17T19:47:54.809Z,6.70
2019-03-17T19:50:24.129Z,6.70
2019-03-17T19:52:54.143Z,6.80
2019-03-17T19:55:23.684Z,6.80
2019-03-17T19:57:52.983Z,6.80
2019-03-17T20:00:22.743Z,6.80
2019-03-17T20:02:51.764Z,6.80
2019-03-17T20:05:20.760Z,6.80
2019-03-17T20:07:49.757Z,6.80
2019-03-17T20:10:26.697Z,6.80
2019-03-17T20:12:55.963Z,6.80
2019-03-17T20:15:24.871Z,6.80
2019-03-17T20:17:54.189Z,6.90
2019-03-17T20:20:23.428Z,6.90
2019-03-17T20:22:53.545Z,6.90
2019-03-17T20:25:22.449Z,6.90
2019-03-17T20:27:51.764Z,6.90
2019-03-17T20:30:20.979Z,6.90
2019-03-17T20:32:55.622Z,6.90
2019-03-17T20:35:24.526Z,6.90
2019-03-17T20:37:53.539Z,7.00
2019-03-17T20:40:22.548Z,6.90
2019-03-17T20:42:53.198Z,6.90
2019-03-17T20:45:22.101Z,7.00
2019-03-17T20:47:51.008Z,7.00
2019-03-17T20:50:20.533Z,7.00
2019-03-17T20:52:50.669Z,7.00
2019-03-17T20:55:19.677Z,7.10
2019-03-17T20:57:50.017Z,7.10
2019-03-17T21:00:20.466Z,7.10
2019-03-17T21:02:49.367Z,7.20
2019-03-17T21:05:18.275Z,7.20
2019-03-17T21:07:47.211Z,7.20
2019-03-17T21:10:17.220Z,7.20
2019-03-17T21:12:47.357Z,7.20
2019-03-17T21:15:21.005Z,7.20
2019-03-17T21:17:49.979Z,7.20
2019-03-17T21:20:23.018Z,7.20
2019-03-17T21:22:51.989Z,7.10
2019-03-17T21:25:21.923Z,7.10
2019-03-17T21:27:52.466Z,7.10
2019-03-17T21:30:24.241Z,7.00
2019-03-17T21:32:53.147Z,7.00
2019-03-17T21:35:22.061Z,7.10
2019-03-17T21:37:50.962Z,7.00
2019-03-17T21:40:20.082Z,7.10
2019-03-17T21:42:49.703Z,7.00
2019-03-17T21:45:18.607Z,7.00
2019-03-17T21:47:48.539Z,7.00
2019-03-17T21:50:23.280Z,7.00
2019-03-17T21:52:53.417Z,7.00
2019-03-17T21:55:22.747Z,7.00
2019-03-17T21:57:51.641Z,7.00
2019-03-17T22:00:21.388Z,7.10
2019-03-17T22:02:50.274Z,7.00
2019-03-17T22:05:19.182Z,7.00
2019-03-17T22:07:50.942Z,6.90
2019-03-17T22:10:20.809Z,7.00
2019-03-17T22:12:50.206Z,7.00
2019-03-17T22:15:19.401Z,7.10
2019-03-17T22:17:48.327Z,7.10
2019-03-17T22:20:17.664Z,7.00
2019-03-17T22:22:48.062Z,7.00
2019-03-17T22:25:17.492Z,7.00
2019-03-17T22:27:47.547Z,7.00
2019-03-17T22:30:18.830Z,7.00
2019-03-17T22:32:46.991Z,7.00
2019-03-17T22:35:16.003Z,7.00
2019-03-17T22:37:44.911Z,7.00
2019-03-17T22:40:18.835Z,7.00
2019-03-17T22:42:48.050Z,7.10
2019-03-17T22:45:17.274Z,7.10
2019-03-17T22:47:46.362Z,7.10
2019-03-17T22:50:16.233Z,7.10
2019-03-17T22:52:46.198Z,7.10
2019-03-17T22:55:15.657Z,7.10
2019-03-17T22:57:44.673Z,7.00
2019-03-17T23:00:37.207Z,7.00
2019-03-17T23:03:07.200Z,6.90
2019-03-17T23:05:36.053Z,6.90
2019-03-17T23:08:05.473Z,6.80
2019-03-17T23:10:34.381Z,6.80
2019-03-17T23:13:03.288Z,6.70
2019-03-17T23:15:32.201Z,6.60
2019-03-17T23:18:01.105Z,6.50
2019-03-17T23:20:30.216Z,6.40
2019-03-17T23:23:00.133Z,6.40
2019-03-17T23:25:29.056Z,6.30
2019-03-17T23:27:57.963Z,6.30
2019-03-17T23:30:26.820Z,6.30
2019-03-17T23:32:56.188Z,6.20
2019-03-17T23:35:25.301Z,6.20
2019-03-17T23:37:54.215Z,6.20
2019-03-17T23:40:23.133Z,6.20
2019-03-17T23:42:55.209Z,6.20
2019-03-17T23:45:24.207Z,6.10
2019-03-17T23:47:53.116Z,6.20
2019-03-17T23:50:22.024Z,6.10
2019-03-17T23:52:50.848Z,6.10
2019-03-17T23:55:19.737Z,6.10
2019-03-17T23:57:48.850Z,6.00
